Time;durP1;ratioP1;P1;durP2;ratioP2;P2;SDS_P1;SDS_P2;PMS_P1;PMS_P2;Temp;Humidity;BMP_temperature;BMP_pressure;BME280_temperature;BME280_humidity;BME280_pressure;Samples;Min_cycle;Max_cycle;Signal;HPM_P1;HPM_P2
2021/07/04 00:00:43;;;;;;;7.85;4.55;;;21.30;99.90;;;;;;4141548;28;20089;-73
2021/07/04 00:02:44;;;;;;;6.30;4.65;;;21.30;99.90;;;;;;4139692;28;20088;-73
2021/07/04 00:04:44;;;;;;;5.70;4.72;;;21.30;99.90;;;;;;4139588;28;20030;-73
2021/07/04 00:06:45;;;;;;;6.15;4.50;;;21.30;99.90;;;;;;4140712;28;20113;-73
2021/07/04 00:08:46;;;;;;;6.43;5.03;;;21.30;99.90;;;;;;4138568;28;20038;-73
2021/07/04 00:10:58;;;;;;;4.93;4.35;;;21.30;99.90;;;;;;4138977;28;20154;-73
2021/07/04 00:12:59;;;;;;;7.23;5.13;;;21.30;99.90;;;;;;4136219;28;20042;-73
2021/07/04 00:15:00;;;;;;;8.25;5.07;;;21.30;99.90;;;;;;4138273;28;20701;-73
2021/07/04 00:17:00;;;;;;;9.45;5.95;;;21.20;99.90;;;;;;4141669;28;20049;-73
2021/07/04 00:19:01;;;;;;;7.28;5.65;;;21.30;99.90;;;;;;4140978;28;20394;-73
2021/07/04 00:21:07;;;;;;;7.45;4.97;;;21.30;99.90;;;;;;4142635;28;20033;-73
2021/07/04 00:23:08;;;;;;;6.93;4.93;;;21.20;99.90;;;;;;4141559;28;20034;-73
2021/07/04 00:25:11;;;;;;;7.10;4.93;;;21.30;99.90;;;;;;4143269;28;20029;-73
2021/07/04 00:27:12;;;;;;;6.20;4.97;;;21.20;99.90;;;;;;4138434;28;20092;-73
2021/07/04 00:29:13;;;;;;;9.55;5.70;;;21.20;99.90;;;;;;4143455;28;20124;-73
2021/07/04 00:31:14;;;;;;;7.18;5.35;;;21.20;99.90;;;;;;4136385;28;21312;-73
2021/07/04 00:33:15;;;;;;;7.13;5.60;;;21.20;99.90;;;;;;4140175;28;20095;-73
2021/07/04 00:35:17;;;;;;;7.85;5.63;;;21.20;99.90;;;;;;4141685;28;20034;-73
2021/07/04 00:37:17;;;;;;;6.97;5.00;;;21.20;99.90;;;;;;4131020;28;20049;-73
2021/07/04 00:39:18;;;;;;;6.00;4.72;;;21.10;99.90;;;;;;4136240;28;20038;-73
2021/07/04 00:41:19;;;;;;;7.13;5.30;;;21.10;99.90;;;;;;4142937;28;20030;-73
2021/07/04 00:43:20;;;;;;;9.68;5.90;;;21.10;99.90;;;;;;4138517;28;20139;-74
2021/07/04 00:45:23;;;;;;;6.57;4.97;;;21.10;99.90;;;;;;4138249;28;20042;-73
2021/07/04 00:47:24;;;;;;;8.68;5.43;;;21.10;99.90;;;;;;4134389;28;20057;-73
2021/07/04 00:49:25;;;;;;;8.20;5.72;;;21.10;99.90;;;;;;4134709;28;20030;-73
2021/07/04 00:51:26;;;;;;;8.32;5.75;;;21.10;99.90;;;;;;4136856;28;20096;-73
2021/07/04 00:53:26;;;;;;;10.52;6.57;;;21.00;99.90;;;;;;4142645;28;20477;-73
2021/07/04 00:55:28;;;;;;;7.72;5.70;;;20.90;99.90;;;;;;4142458;28;20425;-73
2021/07/04 00:57:28;;;;;;;8.70;5.60;;;20.80;99.90;;;;;;4142307;28;20367;-73
2021/07/04 00:59:29;;;;;;;9.98;6.30;;;20.90;99.90;;;;;;4141627;28;20088;-73
2021/07/04 01:01:30;;;;;;;9.07;6.32;;;20.90;99.90;;;;;;4131306;28;20054;-73
2021/07/04 01:03:31;;;;;;;6.72;5.45;;;20.80;99.90;;;;;;4141627;28;20034;-73
2021/07/04 01:05:33;;;;;;;7.53;5.25;;;20.90;99.90;;;;;;4135161;28;20022;-73
2021/07/04 01:07:34;;;;;;;6.75;5.40;;;20.90;99.90;;;;;;4139461;28;20100;-73
2021/07/04 01:09:35;;;;;;;8.35;5.40;;;20.90;99.90;;;;;;4142705;28;20034;-73
2021/07/04 01:11:36;;;;;;;6.63;5.15;;;20.90;99.90;;;;;;4140499;28;20034;-73
2021/07/04 01:13:37;;;;;;;9.25;6.07;;;20.90;99.90;;;;;;4133679;28;20147;-73
2021/07/04 01:15:38;;;;;;;6.82;5.53;;;20.90;99.90;;;;;;4140231;28;20030;-73
2021/07/04 01:17:39;;;;;;;7.82;5.85;;;20.90;99.90;;;;;;4134655;28;20034;-73
2021/07/04 01:19:39;;;;;;;6.55;5.43;;;20.90;99.90;;;;;;4139017;28;20088;-73
2021/07/04 01:21:42;;;;;;;7.88;5.93;;;20.90;99.90;;;;;;4135740;28;20034;-73
2021/07/04 01:23:43;;;;;;;;;;;20.90;99.90;;;;;;4139622;28;20428;-73
2021/07/04 01:25:49;;;;;;;11.43;5.38;;;21.00;99.90;;;;;;4133855;28;19999;-73
2021/07/04 01:27:49;;;;;;;7.35;5.53;;;20.90;99.90;;;;;;4138610;28;20066;-73
2021/07/04 01:29:50;;;;;;;6.88;5.72;;;20.90;99.90;;;;;;4138746;28;20038;-73
2021/07/04 01:31:51;;;;;;;7.20;5.70;;;20.90;99.90;;;;;;4135960;28;20568;-73
2021/07/04 01:33:51;;;;;;;7.78;5.85;;;20.90;99.90;;;;;;4140561;28;20062;-73
2021/07/04 01:35:52;;;;;;;7.07;5.38;;;20.90;99.90;;;;;;4137709;28;20490;-73
2021/07/04 01:37:54;;;;;;;6.68;5.22;;;20.90;99.90;;;;;;4138659;28;20134;-73
2021/07/04 01:39:54;;;;;;;7.43;5.87;;;20.90;99.90;;;;;;4136038;28;20130;-73
2021/07/04 01:41:56;;;;;;;9.68;6.55;;;20.90;99.90;;;;;;4128114;28;20860;-73
2021/07/04 01:43:57;;;;;;;10.27;6.17;;;20.90;99.90;;;;;;4132818;28;20034;-73
2021/07/04 01:45:57;;;;;;;8.88;5.30;;;20.90;99.90;;;;;;4137020;28;20122;-73
2021/07/04 01:47:58;;;;;;;7.00;4.93;;;20.90;99.90;;;;;;4123011;28;20427;-73
2021/07/04 01:49:59;;;;;;;10.20;5.70;;;20.90;99.90;;;;;;4139828;28;20034;-73
2021/07/04 01:51:59;;;;;;;7.90;5.38;;;20.90;99.90;;;;;;4131086;28;20125;-73
2021/07/04 01:54:00;;;;;;;7.90;5.93;;;20.90;99.90;;;;;;4134732;28;20153;-73
2021/07/04 01:56:04;;;;;;;10.00;5.57;;;20.90;99.90;;;;;;4134006;28;20038;-73
2021/07/04 01:58:04;;;;;;;11.73;5.57;;;20.90;99.90;;;;;;4128708;28;20042;-73
2021/07/04 02:00:18;;;;;;;7.15;5.60;;;20.90;99.90;;;;;;4140493;28;20072;-73
2021/07/04 02:02:18;;;;;;;7.68;5.55;;;20.90;99.90;;;;;;4134505;28;20049;-73
2021/07/04 02:04:19;;;;;;;9.55;6.30;;;20.90;99.90;;;;;;4136310;28;20501;-73
2021/07/04 02:06:19;;;;;;;8.65;6.20;;;20.90;99.90;;;;;;4140074;28;20486;-73
2021/07/04 02:08:20;;;;;;;8.88;6.78;;;20.90;99.90;;;;;;4142631;28;20748;-73
2021/07/04 02:10:30;;;;;;;9.45;6.25;;;20.90;99.90;;;;;;4133956;28;20406;-73
2021/07/04 02:12:31;;;;;;;7.53;6.15;;;20.90;99.90;;;;;;4134467;28;20034;-73
2021/07/04 02:14:31;;;;;;;8.38;6.40;;;20.80;99.90;;;;;;4135989;28;20045;-73
2021/07/04 02:16:32;;;;;;;10.25;6.70;;;20.80;99.90;;;;;;4132702;28;20041;-73
2021/07/04 02:18:32;;;;;;;7.63;6.03;;;20.80;99.90;;;;;;4142280;28;20034;-73
2021/07/04 02:20:39;;;;;;;9.45;6.50;;;20.80;99.90;;;;;;4142257;28;20069;-73
2021/07/04 02:22:40;;;;;;;13.82;7.72;;;20.80;99.90;;;;;;4141391;28;20120;-73
2021/07/04 02:24:40;;;;;;;9.45;6.88;;;20.80;99.90;;;;;;4134622;28;20084;-73
2021/07/04 02:26:41;;;;;;;8.30;6.63;;;20.80;99.90;;;;;;4140418;28;20046;-73
2021/07/04 02:28:42;;;;;;;9.48;7.25;;;20.70;99.90;;;;;;4130440;28;20089;-72
2021/07/04 02:30:44;;;;;;;8.05;6.38;;;20.70;99.90;;;;;;4139051;28;20045;-73
2021/07/04 02:32:45;;;;;;;7.57;6.13;;;20.80;99.90;;;;;;4131772;28;20042;-73
2021/07/04 02:34:45;;;;;;;10.77;6.65;;;20.80;99.90;;;;;;4129917;28;20076;-73
2021/07/04 02:36:46;;;;;;;8.75;6.10;;;20.80;99.90;;;;;;4135870;28;20053;-72
2021/07/04 02:38:47;;;;;;;14.32;7.07;;;20.80;99.90;;;;;;4135921;28;20031;-73
2021/07/04 02:40:48;;;;;;;8.70;6.55;;;20.80;99.90;;;;;;4139601;28;20044;-73
2021/07/04 02:42:50;;;;;;;10.80;6.28;;;20.80;99.90;;;;;;4138179;28;20049;-72
2021/07/04 02:44:50;;;;;;;10.82;7.05;;;20.80;99.90;;;;;;4140259;28;20054;-72
2021/07/04 02:46:51;;;;;;;10.68;6.65;;;20.80;99.90;;;;;;4139692;28;20042;-73
2021/07/04 02:48:51;;;;;;;11.02;6.97;;;20.80;99.90;;;;;;4135427;28;20141;-73
2021/07/04 02:50:52;;;;;;;8.80;6.40;;;20.80;99.90;;;;;;4133313;28;20039;-73
2021/07/04 02:52:54;;;;;;;8.60;6.50;;;20.80;99.90;;;;;;4138490;28;20038;-73
2021/07/04 02:54:54;;;;;;;8.57;6.88;;;20.90;99.90;;;;;;4135256;28;20042;-73
2021/07/04 02:56:55;;;;;;;11.40;7.57;;;20.80;99.90;;;;;;4141988;28;20096;-73
2021/07/04 02:58:56;;;;;;;11.90;6.53;;;20.80;99.90;;;;;;4137512;28;20169;-73
2021/07/04 03:00:57;;;;;;;11.38;7.47;;;20.80;99.90;;;;;;4141398;28;20085;-73
2021/07/04 03:02:57;;;;;;;8.60;6.25;;;20.80;99.90;;;;;;4139134;28;20034;-73
2021/07/04 03:04:58;;;;;;;10.00;7.65;;;20.80;99.90;;;;;;4141871;28;20038;-73
2021/07/04 03:07:00;;;;;;;11.95;7.93;;;20.80;99.90;;;;;;4142636;28;20029;-72
2021/07/04 03:09:01;;;;;;;12.02;7.30;;;20.80;99.90;;;;;;4142227;28;20634;-73
2021/07/04 03:11:02;;;;;;;11.43;7.97;;;20.80;99.90;;;;;;4141690;28;20037;-72
2021/07/04 03:13:03;;;;;;;13.43;7.57;;;20.70;99.90;;;;;;4142130;28;20030;-73
2021/07/04 03:15:06;;;;;;;9.93;7.45;;;20.70;99.90;;;;;;4144729;28;20077;-73
2021/07/04 03:17:07;;;;;;;9.32;7.45;;;20.60;99.90;;;;;;4134274;28;20034;-73
2021/07/04 03:19:08;;;;;;;9.63;7.03;;;20.60;99.90;;;;;;4143176;28;20045;-72
2021/07/04 03:21:09;;;;;;;8.00;6.50;;;20.60;99.90;;;;;;4143407;28;20049;-73
2021/07/04 03:23:09;;;;;;;9.95;7.20;;;20.60;99.90;;;;;;4139345;28;20026;-73
2021/07/04 03:25:11;;;;;;;10.73;7.32;;;20.60;99.90;;;;;;4143624;28;20092;-73
2021/07/04 03:27:12;;;;;;;9.85;7.00;;;20.70;99.90;;;;;;4139630;28;20033;-73
2021/07/04 03:29:13;;;;;;;12.48;7.80;;;20.70;99.90;;;;;;4138913;28;20635;-73
2021/07/04 03:31:13;;;;;;;9.55;7.28;;;20.70;99.90;;;;;;4139121;28;20499;-73
2021/07/04 03:33:14;;;;;;;12.48;7.22;;;20.70;99.90;;;;;;4140884;28;20052;-73
2021/07/04 03:35:16;;;;;;;9.70;6.60;;;20.70;99.90;;;;;;4141301;28;20033;-73
2021/07/04 03:37:17;;;;;;;7.90;6.80;;;20.70;99.90;;;;;;4142752;28;20105;-73
2021/07/04 03:39:17;;;;;;;9.18;6.45;;;20.70;99.90;;;;;;4139664;28;20038;-73
2021/07/04 03:41:18;;;;;;;8.82;6.68;;;20.70;99.90;;;;;;4138628;28;20507;-73
2021/07/04 03:43:19;;;;;;;11.35;7.13;;;20.70;99.90;;;;;;4123308;28;20045;-73
2021/07/04 03:45:19;;;;;;;10.85;7.05;;;20.70;99.90;;;;;;4140923;28;20034;-73
2021/07/04 03:47:23;;;;;;;11.13;7.38;;;20.70;99.90;;;;;;4138569;28;20057;-73
2021/07/04 03:49:24;;;;;;;8.95;7.38;;;20.70;99.90;;;;;;4144017;28;20506;-73
2021/07/04 03:51:25;;;;;;;10.68;8.00;;;20.80;99.90;;;;;;4140889;28;20034;-73
2021/07/04 03:53:25;;;;;;;9.60;6.35;;;20.70;99.90;;;;;;4136538;28;20046;-73
2021/07/04 03:55:26;;;;;;;8.10;6.20;;;20.80;99.90;;;;;;4142954;28;20030;-73
2021/07/04 03:57:28;;;;;;;8.32;7.00;;;20.70;99.90;;;;;;4136453;28;20034;-73
2021/07/04 03:59:29;;;;;;;9.75;6.80;;;20.70;99.90;;;;;;4135754;28;20378;-73
2021/07/04 04:01:29;;;;;;;8.52;6.38;;;20.80;99.90;;;;;;4137344;28;20125;-73
2021/07/04 04:03:30;;;;;;;9.48;7.43;;;20.70;99.90;;;;;;4142587;28;20092;-73
2021/07/04 04:05:31;;;;;;;9.18;6.93;;;20.70;99.90;;;;;;4140872;28;20037;-73
2021/07/04 04:07:32;;;;;;;8.05;6.45;;;20.70;99.90;;;;;;4142265;28;20560;-73
2021/07/04 04:09:32;;;;;;;8.43;6.50;;;20.70;99.90;;;;;;4142578;28;20044;-73
2021/07/04 04:11:33;;;;;;;8.68;6.25;;;20.70;99.90;;;;;;4140453;28;20105;-73
2021/07/04 04:13:34;;;;;;;8.38;6.30;;;20.70;99.90;;;;;;4141078;28;20050;-73
2021/07/04 04:15:34;;;;;;;10.93;6.82;;;20.70;99.90;;;;;;4142464;28;20041;-73
2021/07/04 04:17:35;;;;;;;8.02;6.75;;;20.70;99.90;;;;;;4141228;28;20038;-73
2021/07/04 04:19:36;;;;;;;8.88;6.65;;;20.70;99.90;;;;;;4143725;28;20092;-73
2021/07/04 04:21:36;;;;;;;9.25;6.72;;;20.70;99.90;;;;;;4142170;28;20045;-73
2021/07/04 04:23:37;;;;;;;8.93;6.20;;;20.70;99.90;;;;;;4143182;28;20038;-73
2021/07/04 04:25:37;;;;;;;8.93;6.70;;;20.60;99.90;;;;;;4143297;28;20042;-73
2021/07/04 04:27:38;;;;;;;9.23;6.40;;;20.60;99.90;;;;;;4142406;28;20042;-73
2021/07/04 04:29:39;;;;;;;8.52;6.60;;;20.60;99.90;;;;;;4141459;28;20038;-73
2021/07/04 04:31:39;;;;;;;6.97;6.13;;;20.60;99.90;;;;;;4140622;28;20691;-73
2021/07/04 04:33:40;;;;;;;10.65;6.72;;;20.60;99.90;;;;;;4139414;28;20054;-73
2021/07/04 04:35:40;;;;;;;9.75;6.93;;;20.60;99.90;;;;;;4142916;28;20038;-73
2021/07/04 04:37:41;;;;;;;9.63;6.65;;;20.60;99.90;;;;;;4140320;28;20125;-73
2021/07/04 04:39:42;;;;;;;7.82;6.07;;;20.60;99.90;;;;;;4141709;28;20038;-73
2021/07/04 04:41:42;;;;;;;9.52;6.70;;;20.60;99.90;;;;;;4138280;28;20061;-73
2021/07/04 04:43:43;;;;;;;9.65;6.47;;;20.60;99.90;;;;;;4140664;28;20521;-73
2021/07/04 04:45:43;;;;;;;9.90;6.70;;;20.60;99.90;;;;;;4140186;28;20096;-73
2021/07/04 04:47:44;;;;;;;7.90;6.45;;;20.60;99.90;;;;;;4142765;28;20042;-73
2021/07/04 04:49:45;;;;;;;9.40;6.75;;;20.60;99.90;;;;;;4140471;28;20038;-73
2021/07/04 04:51:45;;;;;;;8.30;6.10;;;20.60;99.90;;;;;;4141737;28;20034;-73
2021/07/04 04:53:46;;;;;;;10.57;6.68;;;20.60;99.90;;;;;;4141271;28;20052;-73
2021/07/04 04:55:47;;;;;;;7.82;6.35;;;20.60;99.90;;;;;;4156269;28;20037;-73
2021/07/04 04:57:48;;;;;;;15.55;7.25;;;20.60;99.90;;;;;;4141616;28;20042;-73
2021/07/04 04:59:49;;;;;;;11.35;7.68;;;20.60;99.90;;;;;;4143287;28;20422;-73
2021/07/04 05:01:49;;;;;;;12.35;6.72;;;20.60;99.90;;;;;;4141111;28;20033;-73
2021/07/04 05:03:50;;;;;;;10.13;7.13;;;20.70;99.90;;;;;;4125581;28;20031;-73
2021/07/04 05:05:50;;;;;;;9.18;6.82;;;20.70;99.90;;;;;;4141614;28;20566;-73
2021/07/04 05:07:51;;;;;;;10.60;7.45;;;20.70;99.90;;;;;;4142814;28;20046;-73
2021/07/04 05:09:52;;;;;;;9.85;7.18;;;20.70;99.90;;;;;;4140002;28;20125;-73
2021/07/04 05:11:52;;;;;;;9.27;6.75;;;20.70;99.90;;;;;;4141194;28;20042;-73
2021/07/04 05:13:53;;;;;;;8.88;6.82;;;20.70;99.90;;;;;;4142610;28;20042;-73
2021/07/04 05:15:53;;;;;;;8.82;6.72;;;20.70;99.90;;;;;;4134811;28;20034;-73
2021/07/04 05:17:54;;;;;;;9.43;6.70;;;20.80;99.90;;;;;;4141450;28;20037;-73
2021/07/04 05:19:55;;;;;;;9.90;7.03;;;20.70;99.90;;;;;;4140971;28;20026;-73
2021/07/04 05:21:55;;;;;;;9.55;7.15;;;20.80;99.90;;;;;;4143046;28;20084;-73
2021/07/04 05:23:56;;;;;;;10.07;6.90;;;20.80;99.90;;;;;;4131547;28;20029;-73
2021/07/04 05:25:58;;;;;;;10.32;7.25;;;20.90;99.90;;;;;;4142983;28;20042;-73
2021/07/04 05:27:59;;;;;;;9.80;7.93;;;20.90;99.90;;;;;;4139367;28;20084;-73
2021/07/04 05:29:59;;;;;;;10.55;8.00;;;20.90;99.90;;;;;;4142592;28;20501;-73
2021/07/04 05:32:00;;;;;;;12.13;7.93;;;20.90;99.90;;;;;;4140856;28;20041;-73
2021/07/04 05:34:01;;;;;;;9.65;7.65;;;21.00;99.90;;;;;;4142972;28;20034;-72
2021/07/04 05:36:01;;;;;;;12.88;9.10;;;21.00;99.90;;;;;;4114289;28;20046;-73
2021/07/04 05:38:02;;;;;;;11.35;8.88;;;21.00;99.90;;;;;;4147145;28;20489;-73
2021/07/04 05:40:11;;;;;;;12.70;9.63;;;20.90;99.90;;;;;;4146795;28;20065;-75
2021/07/04 05:42:11;;;;;;;9.15;7.60;;;21.00;99.90;;;;;;4147117;28;20038;-75
2021/07/04 05:44:12;;;;;;;11.50;8.57;;;21.00;99.90;;;;;;4147595;28;20303;-75
2021/07/04 05:46:13;;;;;;;11.48;9.10;;;20.90;99.90;;;;;;4143913;28;20033;-75
2021/07/04 05:48:14;;;;;;;11.80;8.65;;;20.90;99.90;;;;;;4139982;28;20278;-75
2021/07/04 05:50:15;;;;;;;12.55;9.30;;;21.00;99.90;;;;;;4140715;28;20096;-75
2021/07/04 05:52:15;;;;;;;12.73;9.27;;;20.90;99.90;;;;;;4141126;28;20033;-75
2021/07/04 05:54:16;;;;;;;13.02;9.40;;;21.00;99.90;;;;;;4141071;28;20441;-75
2021/07/04 05:56:16;;;;;;;12.25;9.55;;;21.20;99.90;;;;;;4137981;28;20045;-75
2021/07/04 05:58:17;;;;;;;12.82;9.77;;;21.40;99.90;;;;;;4141284;28;20134;-75
2021/07/04 06:00:18;;;;;;;17.70;11.32;;;21.60;99.90;;;;;;4139417;28;20402;-76
2021/07/04 06:02:19;;;;;;;13.15;9.50;;;21.80;99.90;;;;;;4141841;28;20056;-75
2021/07/04 06:04:19;;;;;;;10.93;8.35;;;22.00;99.90;;;;;;4138494;28;20052;-75
2021/07/04 06:06:20;;;;;;;18.52;10.68;;;22.30;99.90;;;;;;4137506;28;20030;-75
2021/07/04 06:08:20;;;;;;;16.10;11.25;;;22.50;99.90;;;;;;4141065;28;20458;-75
2021/07/04 06:10:21;;;;;;;14.52;10.23;;;22.70;99.90;;;;;;4139400;28;20041;-75
2021/07/04 06:12:22;;;;;;;10.75;7.45;;;22.80;99.90;;;;;;4141147;28;20041;-75
2021/07/04 06:14:23;;;;;;;12.40;8.60;;;23.10;99.90;;;;;;4140123;28;20050;-76
2021/07/04 06:16:24;;;;;;;10.60;8.60;;;23.40;99.90;;;;;;4140310;28;20096;-75
2021/07/04 06:18:25;;;;;;;10.05;8.40;;;23.50;99.90;;;;;;4140320;28;20517;-75
2021/07/04 06:20:25;;;;;;;11.27;8.38;;;23.70;99.90;;;;;;4141077;28;20034;-75
2021/07/04 06:22:26;;;;;;;10.60;7.65;;;24.00;99.90;;;;;;4140298;28;20026;-75
2021/07/04 06:24:27;;;;;;;12.50;8.38;;;24.10;99.90;;;;;;4141129;28;20385;-76
2021/07/04 06:26:27;;;;;;;11.18;8.50;;;24.30;99.90;;;;;;4140176;28;20121;-76
2021/07/04 06:28:28;;;;;;;13.07;9.18;;;24.40;99.90;;;;;;4139235;28;20038;-76
2021/07/04 06:30:28;;;;;;;12.95;9.18;;;24.30;99.90;;;;;;4141159;28;20030;-76
2021/07/04 06:32:29;;;;;;;11.07;8.18;;;24.10;99.90;;;;;;4140122;28;20049;-76
2021/07/04 06:34:30;;;;;;;12.55;8.13;;;24.00;99.90;;;;;;4138972;28;20501;-76
2021/07/04 06:36:30;;;;;;;10.05;7.32;;;23.90;99.90;;;;;;4139808;28;20109;-76
2021/07/04 06:38:31;;;;;;;11.25;8.02;;;23.80;99.90;;;;;;4133576;28;20030;-76
2021/07/04 06:40:32;;;;;;;10.65;7.75;;;23.80;99.90;;;;;;4137362;28;20037;-76
2021/07/04 06:42:33;;;;;;;10.25;7.97;;;23.70;99.90;;;;;;4144691;28;20030;-76
2021/07/04 06:44:34;;;;;;;11.23;8.05;;;23.60;99.90;;;;;;4142585;28;20046;-76
2021/07/04 06:46:34;;;;;;;12.68;8.50;;;23.50;99.90;;;;;;4141918;28;20057;-76
2021/07/04 06:48:37;;;;;;;11.68;8.02;;;23.50;99.90;;;;;;4141620;28;20101;-76
2021/07/04 06:50:38;;;;;;;10.20;8.15;;;23.40;99.90;;;;;;4140777;28;20096;-76
2021/07/04 06:52:39;;;;;;;11.35;8.48;;;23.40;99.90;;;;;;4143265;28;20041;-76
2021/07/04 06:54:39;;;;;;;12.13;8.48;;;23.30;99.90;;;;;;4143252;28;20394;-76
2021/07/04 06:56:40;;;;;;;10.70;8.32;;;23.30;99.90;;;;;;4144788;28;20046;-76
2021/07/04 06:58:41;;;;;;;11.98;8.82;;;23.30;99.90;;;;;;4142749;28;20497;-76
2021/07/04 07:00:42;;;;;;;11.82;8.95;;;23.20;99.90;;;;;;4142474;28;20030;-76
2021/07/04 07:02:43;;;;;;;12.98;7.63;;;23.10;99.90;;;;;;4146078;28;20117;-76
2021/07/04 07:04:44;;;;;;;12.25;8.50;;;23.10;99.90;;;;;;4143832;28;20073;-76
2021/07/04 07:06:44;;;;;;;14.52;6.90;;;23.10;99.90;;;;;;4143722;28;20038;-76
2021/07/04 07:08:47;;;;;;;12.90;8.10;;;23.00;99.90;;;;;;4125886;28;20026;-76
2021/07/04 07:10:47;;;;;;;8.73;6.28;;;23.00;99.90;;;;;;4143732;28;20079;-76
2021/07/04 07:12:48;;;;;;;10.90;8.35;;;23.00;99.90;;;;;;4143182;28;20037;-76
2021/07/04 07:14:49;;;;;;;9.70;7.10;;;23.00;99.90;;;;;;4123047;28;20505;-76
2021/07/04 07:16:50;;;;;;;12.48;8.63;;;22.90;99.90;;;;;;4135535;28;20030;-76
2021/07/04 07:18:50;;;;;;;9.73;7.25;;;22.90;99.90;;;;;;4144563;28;20052;-76
2021/07/04 07:20:51;;;;;;;10.55;7.20;;;22.80;99.90;;;;;;4144231;28;20041;-76
2021/07/04 07:22:52;;;;;;;12.93;8.57;;;22.80;99.90;;;;;;4143954;28;20046;-76
2021/07/04 07:24:52;;;;;;;9.43;6.30;;;22.80;99.90;;;;;;4144475;28;20037;-76
2021/07/04 07:26:53;;;;;;;8.73;6.20;;;22.80;99.90;;;;;;4142612;28;20448;-76
2021/07/04 07:28:54;;;;;;;10.98;7.40;;;22.90;99.90;;;;;;4143017;28;20057;-75
2021/07/04 07:30:54;;;;;;;8.73;6.30;;;22.80;99.90;;;;;;4146412;28;20018;-76
2021/07/04 07:32:55;;;;;;;9.40;7.45;;;22.80;99.90;;;;;;4147016;28;20100;-76
2021/07/04 07:34:56;;;;;;;10.27;7.28;;;22.80;99.90;;;;;;4154876;28;20506;-75
2021/07/04 07:36:56;;;;;;;8.65;6.78;;;22.80;99.90;;;;;;4145417;28;20053;-76
2021/07/04 07:38:57;;;;;;;10.90;7.22;;;22.80;99.90;;;;;;4144181;28;20049;-76
2021/07/04 07:40:57;;;;;;;9.27;7.22;;;22.80;99.90;;;;;;4143962;28;20128;-76
2021/07/04 07:42:58;;;;;;;8.43;6.80;;;22.80;99.90;;;;;;4143571;28;20034;-76
2021/07/04 07:45:01;;;;;;;9.90;7.40;;;22.80;99.90;;;;;;4149392;28;20042;-76
2021/07/04 07:47:03;;;;;;;8.23;6.10;;;22.80;99.90;;;;;;4149166;28;20057;-76
2021/07/04 07:49:04;;;;;;;7.40;6.50;;;22.80;99.90;;;;;;4153422;28;20036;-76
2021/07/04 07:51:05;;;;;;;8.30;6.75;;;22.80;99.90;;;;;;4142795;28;20344;-76
2021/07/04 07:53:05;;;;;;;7.53;6.50;;;22.80;99.90;;;;;;4144154;28;20403;-76
2021/07/04 07:55:06;;;;;;;8.05;6.10;;;22.80;99.90;;;;;;4146625;28;20068;-76
2021/07/04 07:57:07;;;;;;;9.15;6.57;;;22.80;99.90;;;;;;4144903;28;20502;-75
2021/07/04 07:59:08;;;;;;;9.52;6.40;;;22.80;99.90;;;;;;4147395;28;20117;-75
2021/07/04 08:01:09;;;;;;;10.98;7.50;;;22.80;99.90;;;;;;4145441;28;20030;-75
2021/07/04 08:03:14;;;;;;;9.00;6.30;;;22.80;99.90;;;;;;4144665;28;20601;-76
2021/07/04 08:05:15;;;;;;;10.50;7.28;;;22.90;99.90;;;;;;4141033;28;20050;-75
2021/07/04 08:07:15;;;;;;;12.05;6.25;;;22.90;99.90;;;;;;4142694;28;20474;-75
2021/07/04 08:09:16;;;;;;;9.77;7.05;;;22.90;99.90;;;;;;4140748;28;20045;-76
2021/07/04 08:11:17;;;;;;;8.40;6.05;;;22.90;99.90;;;;;;4145322;28;20041;-75
2021/07/04 08:13:17;;;;;;;9.52;6.82;;;22.90;99.90;;;;;;4144895;28;20061;-75
2021/07/04 08:15:18;;;;;;;9.13;6.30;;;22.90;99.90;;;;;;4143704;28;20517;-75
2021/07/04 08:17:19;;;;;;;7.72;6.07;;;22.90;99.90;;;;;;4140814;28;20444;-75
2021/07/04 08:19:19;;;;;;;9.05;6.60;;;22.90;99.90;;;;;;4129964;28;20034;-75
2021/07/04 08:21:20;;;;;;;7.90;5.97;;;22.90;99.90;;;;;;4142261;28;20026;-75
2021/07/04 08:23:21;;;;;;;7.93;5.20;;;23.00;99.90;;;;;;4136660;28;20026;-76
2021/07/04 08:25:22;;;;;;;8.57;6.53;;;23.00;99.90;;;;;;4142021;28;20605;-75
2021/07/04 08:27:22;;;;;;;9.07;6.30;;;23.10;99.90;;;;;;4140027;28;20029;-75
2021/07/04 08:29:23;;;;;;;8.07;5.68;;;23.10;99.90;;;;;;4141947;28;20038;-75
2021/07/04 08:31:25;;;;;;;4.90;4.18;;;23.10;99.90;;;;;;4142081;28;20490;-74
2021/07/04 08:33:26;;;;;;;7.55;5.15;;;23.10;99.90;;;;;;4143276;28;20393;-75
2021/07/04 08:35:26;;;;;;;8.45;5.82;;;23.20;99.90;;;;;;4143928;28;20042;-75
2021/07/04 08:37:27;;;;;;;7.47;4.95;;;23.20;99.90;;;;;;4139413;28;20029;-75
2021/07/04 08:39:28;;;;;;;4.95;4.32;;;23.20;99.90;;;;;;4139648;28;20041;-75
2021/07/04 08:41:28;;;;;;;6.38;4.65;;;23.20;99.90;;;;;;4138976;28;20036;-75
2021/07/04 08:43:34;;;;;;;7.60;5.63;;;23.20;99.90;;;;;;4142458;28;20132;-75
2021/07/04 08:45:37;;;;;;;8.73;5.32;;;23.30;99.90;;;;;;4142326;28;20060;-75
2021/07/04 08:47:38;;;;;;;7.15;4.85;;;23.30;99.90;;;;;;4141112;28;20026;-75
2021/07/04 08:49:39;;;;;;;5.85;4.70;;;23.40;99.90;;;;;;4141674;28;20089;-75
2021/07/04 08:51:41;;;;;;;6.13;4.57;;;23.40;99.90;;;;;;4139691;28;20868;-76
2021/07/04 08:53:42;;;;;;;6.82;5.35;;;23.40;99.90;;;;;;4130887;28;20681;-75
2021/07/04 08:55:44;;;;;;;5.72;4.50;;;23.50;99.90;;;;;;4140978;28;20041;-76
2021/07/04 08:57:45;;;;;;;6.80;4.75;;;23.50;99.90;;;;;;4142338;28;20551;-76
2021/07/04 08:59:47;;;;;;;9.93;5.40;;;23.60;99.90;;;;;;4140431;28;20032;-75
2021/07/04 09:01:50;;;;;;;5.00;4.03;;;23.70;99.90;;;;;;4143108;28;20042;-76
2021/07/04 09:03:56;;;;;;;4.70;3.65;;;23.70;99.90;;;;;;4148928;28;20355;-75
2021/07/04 09:05:56;;;;;;;5.40;4.05;;;23.80;99.90;;;;;;4120784;28;20034;-75
2021/07/04 09:07:58;;;;;;;5.45;3.63;;;23.80;99.90;;;;;;4144676;28;20056;-76
2021/07/04 09:10:12;;;;;;;5.53;3.70;;;23.90;99.90;;;;;;4143631;28;20030;-75
2021/07/04 09:12:12;;;;;;;5.45;4.07;;;24.00;99.90;;;;;;4136531;28;20030;-76
2021/07/04 09:14:13;;;;;;;5.43;4.15;;;24.00;99.90;;;;;;4146119;28;20120;-76
2021/07/04 09:16:16;;;;;;;4.22;3.80;;;24.10;99.90;;;;;;4149330;28;20042;-75
2021/07/04 09:18:17;;;;;;;;;;;24.10;99.90;;;;;;4149467;28;20056;-75
2021/07/04 09:20:21;;;;;;;4.75;3.20;;;24.20;99.90;;;;;;4152455;28;20269;-76
2021/07/04 09:22:30;;;;;;;5.50;3.78;;;24.30;99.90;;;;;;4141915;28;20037;-76
2021/07/04 09:24:43;;;;;;;4.70;3.45;;;24.30;99.90;;;;;;4134070;28;20062;-75
2021/07/04 09:26:44;;;;;;;6.47;4.18;;;24.30;99.90;;;;;;4142849;28;20049;-75
2021/07/04 09:28:44;;;;;;;4.80;4.07;;;24.40;99.90;;;;;;4144851;28;20034;-75
2021/07/04 09:30:53;;;;;;;8.25;4.65;;;24.30;99.90;;;;;;4146491;28;20034;-75
2021/07/04 09:32:53;;;;;;;5.30;3.75;;;24.30;99.90;;;;;;4135887;28;20518;-75
2021/07/04 09:35:05;;;;;;;7.60;5.38;;;24.30;99.90;;;;;;4142328;28;20109;-75
2021/07/04 09:37:05;;;;;;;6.25;4.63;;;24.30;99.90;;;;;;4136694;28;20084;-75
2021/07/04 09:39:20;;;;;;;6.88;5.72;;;24.30;99.90;;;;;;4141534;28;20030;-75
2021/07/04 09:41:21;;;;;;;9.95;7.35;;;24.20;99.90;;;;;;4135313;28;20068;-75
2021/07/04 09:43:22;;;;;;;10.13;7.95;;;24.20;99.90;;;;;;4140628;28;20034;-75
2021/07/04 09:45:24;;;;;;;10.57;7.95;;;24.10;99.90;;;;;;4144490;28;20061;-75
2021/07/04 09:47:25;;;;;;;10.00;7.38;;;23.90;99.90;;;;;;4140855;28;20034;-75
2021/07/04 09:49:25;;;;;;;9.07;6.78;;;23.90;99.90;;;;;;4125826;28;20579;-75
2021/07/04 09:51:28;;;;;;;9.27;6.45;;;24.00;99.90;;;;;;4140716;28;20041;-75
2021/07/04 09:53:41;;;;;;;7.90;5.93;;;24.00;99.90;;;;;;4141632;28;20026;-75
2021/07/04 09:55:42;;;;;;;10.00;7.20;;;24.10;99.90;;;;;;4134616;28;20057;-75
2021/07/04 09:58:01;;;;;;;7.75;5.75;;;24.10;99.90;;;;;;4126168;28;20082;-75
2021/07/04 10:00:19;;;;;;;9.95;7.90;;;24.20;99.90;;;;;;4141233;28;20483;-75
2021/07/04 10:02:20;;;;;;;12.20;8.30;;;24.20;99.90;;;;;;4135553;28;20033;-75
2021/07/04 10:04:35;;;;;;;9.13;6.70;;;24.10;99.90;;;;;;4143711;28;20452;-75
2021/07/04 10:06:47;;;;;;;12.25;8.30;;;24.20;99.90;;;;;;4140783;28;20380;-75
2021/07/04 10:08:48;;;;;;;11.25;6.60;;;24.30;99.90;;;;;;4150380;28;20083;-75
2021/07/04 10:10:53;;;;;;;10.10;7.35;;;24.40;99.90;;;;;;4127293;28;20482;-75
2021/07/04 10:12:54;;;;;;;9.98;7.35;;;24.50;99.90;;;;;;4142807;28;20137;-75
2021/07/04 10:14:55;;;;;;;9.00;6.35;;;24.50;99.90;;;;;;4144830;28;20314;-75
2021/07/04 10:16:58;;;;;;;9.40;5.78;;;24.60;99.90;;;;;;4143474;28;20489;-75
2021/07/04 10:19:02;;;;;;;9.27;5.43;;;24.70;99.90;;;;;;4142056;28;20108;-75
2021/07/04 10:21:04;;;;;;;8.02;6.03;;;24.80;99.90;;;;;;4144480;28;20489;-75
2021/07/04 10:23:06;;;;;;;6.85;5.63;;;24.90;99.90;;;;;;4144418;28;20033;-75
2021/07/04 10:25:08;;;;;;;9.27;6.03;;;24.90;99.90;;;;;;4147652;28;20556;-75
2021/07/04 10:27:12;;;;;;;8.18;5.70;;;25.00;99.90;;;;;;4149164;28;20117;-75
2021/07/04 10:29:13;;;;;;;8.88;5.88;;;25.10;99.90;;;;;;4147566;28;20041;-75